FAEL

Ben Schoeman Airport

East London, South Africa
METAR FAEL 170500Z 27008KT 9999 FEW031 14/10 Q1022
Observed Flight Rules
Oct-17 @ 05:00 UTC (20 minutes ago) Visual Flight Rules
Wind Visibility Clouds
270° at 8 knots 10,000+ meters
  • Few at 3,100' AGL
Temperatures Readings
Current 14°C / 57°F
Dewpoint 10°C / 50°F
Humidity 77%
Altimeter 30.18" Hg
Pressure 1022 hPa
Elevation 125
METAR FAEL 170500Z 27008KT 9999 FEW031 14/10 Q1022
Observed Flight Rules
Oct-17 @ 05:00 UTC
(20 minutes ago)
VFR
Wind Visibility
270° at 8 knots 10,000+ meters
Clouds
  • Few at 3,100' AGL
Temperature Dewpoint
14°C / 57°F 10°C / 50°F
Humidity Altimeter Pressure
77% 30.18" Hg 1022 hPa